DLH5UY EDDF-EDDL
Flight info
| Callsign | DLH5UY |
|---|---|
| Flight time | 0h 22m |
| Altitude | 20000 |
| Route | MARUN6E/07C MARUN Y152 ARPEG Z850 ADEMI T854 DOMUX DOMUX1A |
| Aircraft | A321/M-SDE3FGHIRWY/LB1 |
Departure
| Time | 2026-04-14 16:27 |
|---|---|
| Airport | Frankfurt Main Airport (EDDF) |
Arrival
| Time | 2026-04-14 16:49 |
|---|---|
| Airport | Düsseldorf Airport (EDDL) |
| Time | Latitude | Longitude | Altitude | Speed | Heading |
|---|---|---|---|---|---|
| 2026-04-14 16:27 | 50.35022 | 8.55095 | 13175 ft | 308 kts | 328° |
| 2026-04-14 16:27 | 50.36882 | 8.53382 | 13852 ft | 311 kts | 328° |
| 2026-04-14 16:27 | 50.38757 | 8.51655 | 14501 ft | 314 kts | 328° |
| 2026-04-14 16:28 | 50.40623 | 8.49937 | 15138 ft | 316 kts | 328° |
| 2026-04-14 16:28 | 50.42533 | 8.48172 | 15761 ft | 319 kts | 328° |
| 2026-04-14 16:28 | 50.44452 | 8.46395 | 16366 ft | 322 kts | 328° |
| 2026-04-14 16:28 | 50.46393 | 8.44589 | 16955 ft | 324 kts | 328° |
| 2026-04-14 16:29 | 50.48345 | 8.42773 | 17541 ft | 327 kts | 328° |
| 2026-04-14 16:29 | 50.50308 | 8.40944 | 18116 ft | 329 kts | 328° |
| 2026-04-14 16:29 | 50.52283 | 8.39102 | 18676 ft | 332 kts | 328° |
| 2026-04-14 16:29 | 50.54277 | 8.37241 | 19223 ft | 334 kts | 328° |
| 2026-04-14 16:30 | 50.56286 | 8.35371 | 19761 ft | 337 kts | 328° |
| 2026-04-14 16:30 | 50.58298 | 8.33494 | 20101 ft | 346 kts | 328° |
| 2026-04-14 16:30 | 50.60394 | 8.31530 | 20185 ft | 350 kts | 328° |
| 2026-04-14 16:30 | 50.62479 | 8.29578 | 20192 ft | 347 kts | 328° |
| 2026-04-14 16:31 | 50.64565 | 8.27623 | 20192 ft | 351 kts | 328° |
| 2026-04-14 16:31 | 50.66679 | 8.25640 | 20194 ft | 355 kts | 328° |
| 2026-04-14 16:31 | 50.68807 | 8.23644 | 20192 ft | 356 kts | 328° |
| 2026-04-14 16:31 | 50.70940 | 8.21648 | 20190 ft | 353 kts | 328° |
| 2026-04-14 16:32 | 50.73000 | 8.19714 | 20192 ft | 346 kts | 328° |
| 2026-04-14 16:32 | 50.75067 | 8.17766 | 20191 ft | 344 kts | 328° |
| 2026-04-14 16:32 | 50.77121 | 8.15829 | 20191 ft | 344 kts | 328° |
| 2026-04-14 16:32 | 50.79177 | 8.13888 | 20192 ft | 343 kts | 328° |
| 2026-04-14 16:33 | 50.81232 | 8.11946 | 20192 ft | 344 kts | 328° |
| 2026-04-14 16:33 | 50.83289 | 8.09999 | 20192 ft | 344 kts | 328° |
| 2026-04-14 16:33 | 50.85317 | 8.08080 | 20192 ft | 343 kts | 328° |
| 2026-04-14 16:33 | 50.87373 | 8.06130 | 20193 ft | 343 kts | 327° |
| 2026-04-14 16:34 | 50.89419 | 8.04183 | 20193 ft | 343 kts | 327° |
| 2026-04-14 16:34 | 50.91468 | 8.02237 | 20105 ft | 345 kts | 328° |
| 2026-04-14 16:34 | 50.93529 | 8.00279 | 19676 ft | 342 kts | 327° |
| 2026-04-14 16:34 | 50.95544 | 7.98362 | 19392 ft | 333 kts | 327° |
| 2026-04-14 16:35 | 50.97517 | 7.96486 | 19013 ft | 328 kts | 328° |
| 2026-04-14 16:35 | 50.99444 | 7.94586 | 18676 ft | 321 kts | 321° |
| 2026-04-14 16:35 | 51.00989 | 7.92103 | 18556 ft | 317 kts | 307° |
| 2026-04-14 16:35 | 51.02328 | 7.89372 | 18432 ft | 317 kts | 307° |
| 2026-04-14 16:36 | 51.03691 | 7.86566 | 18304 ft | 316 kts | 306° |
| 2026-04-14 16:36 | 51.05012 | 7.83835 | 17961 ft | 317 kts | 307° |
| 2026-04-14 16:36 | 51.06374 | 7.81016 | 17298 ft | 320 kts | 307° |
| 2026-04-14 16:36 | 51.07707 | 7.78257 | 16562 ft | 311 kts | 307° |
| 2026-04-14 16:37 | 51.09015 | 7.75547 | 15699 ft | 307 kts | 307° |
| 2026-04-14 16:37 | 51.10305 | 7.72874 | 14843 ft | 303 kts | 307° |
| 2026-04-14 16:37 | 51.11583 | 7.70226 | 13977 ft | 299 kts | 307° |
| 2026-04-14 16:37 | 51.12843 | 7.67606 | 13120 ft | 297 kts | 307° |
| 2026-04-14 16:38 | 51.14091 | 7.65003 | 12285 ft | 293 kts | 307° |
| 2026-04-14 16:38 | 51.15323 | 7.62429 | 11454 ft | 290 kts | 307° |
| 2026-04-14 16:38 | 51.16528 | 7.59919 | 10673 ft | 287 kts | 307° |
| 2026-04-14 16:38 | 51.17737 | 7.57397 | 10326 ft | 283 kts | 307° |
| 2026-04-14 16:39 | 51.18930 | 7.54908 | 10207 ft | 281 kts | 307° |
| 2026-04-14 16:39 | 51.20118 | 7.52428 | 10148 ft | 281 kts | 307° |
| 2026-04-14 16:39 | 51.21293 | 7.49972 | 9630 ft | 275 kts | 307° |
| 2026-04-14 16:39 | 51.22437 | 7.47572 | 9118 ft | 269 kts | 307° |
| 2026-04-14 16:40 | 51.23591 | 7.45146 | 8827 ft | 275 kts | 307° |
| 2026-04-14 16:40 | 51.24732 | 7.42758 | 8505 ft | 273 kts | 307° |
| 2026-04-14 16:40 | 51.25887 | 7.40346 | 8177 ft | 272 kts | 307° |
| 2026-04-14 16:40 | 51.27035 | 7.37934 | 7839 ft | 271 kts | 307° |
| 2026-04-14 16:41 | 51.28172 | 7.35535 | 7488 ft | 269 kts | 307° |
| 2026-04-14 16:41 | 51.29299 | 7.33152 | 7178 ft | 268 kts | 307° |
| 2026-04-14 16:41 | 51.30422 | 7.30772 | 6860 ft | 267 kts | 307° |
| 2026-04-14 16:41 | 51.31543 | 7.28392 | 6493 ft | 266 kts | 307° |
| 2026-04-14 16:42 | 51.32644 | 7.26060 | 6184 ft | 265 kts | 307° |
| 2026-04-14 16:42 | 51.33755 | 7.23708 | 5877 ft | 263 kts | 307° |
| 2026-04-14 16:42 | 51.34855 | 7.21379 | 5508 ft | 261 kts | 307° |
| 2026-04-14 16:42 | 51.35934 | 7.19092 | 5290 ft | 248 kts | 307° |
| 2026-04-14 16:43 | 51.36916 | 7.17004 | 5121 ft | 223 kts | 307° |
| 2026-04-14 16:43 | 51.37811 | 7.15096 | 4768 ft | 211 kts | 307° |
| 2026-04-14 16:43 | 51.38680 | 7.13251 | 4451 ft | 205 kts | 307° |
| 2026-04-14 16:43 | 51.39544 | 7.11420 | 4384 ft | 205 kts | 307° |
| 2026-04-14 16:44 | 51.40376 | 7.09654 | 4212 ft | 189 kts | 307° |
| 2026-04-14 16:44 | 51.41151 | 7.07987 | 3987 ft | 184 kts | 304° |
| 2026-04-14 16:44 | 51.41599 | 7.06060 | 3891 ft | 188 kts | 277° |
| 2026-04-14 16:45 | 51.40763 | 7.02225 | 3712 ft | 191 kts | 233° |
| 2026-04-14 16:45 | 51.39965 | 7.00533 | 3518 ft | 190 kts | 234° |
| 2026-04-14 16:45 | 51.39173 | 6.98851 | 3291 ft | 189 kts | 234° |
| 2026-04-14 16:45 | 51.38380 | 6.97172 | 3048 ft | 188 kts | 234° |
| 2026-04-14 16:46 | 51.37592 | 6.95503 | 2787 ft | 187 kts | 234° |
| 2026-04-14 16:46 | 51.36815 | 6.93860 | 2527 ft | 182 kts | 234° |
| 2026-04-14 16:46 | 51.36072 | 6.92288 | 2313 ft | 171 kts | 234° |
| 2026-04-14 16:46 | 51.35382 | 6.90830 | 2098 ft | 158 kts | 234° |
| 2026-04-14 16:47 | 51.34737 | 6.89468 | 1882 ft | 154 kts | 233° |
| 2026-04-14 16:47 | 51.34103 | 6.88130 | 1682 ft | 148 kts | 233° |
| 2026-04-14 16:47 | 51.33486 | 6.86829 | 1480 ft | 146 kts | 233° |
| 2026-04-14 16:47 | 51.32875 | 6.85544 | 1294 ft | 145 kts | 232° |
| 2026-04-14 16:48 | 51.32271 | 6.84268 | 1101 ft | 144 kts | 233° |
| 2026-04-14 16:48 | 51.31668 | 6.82995 | 913 ft | 143 kts | 232° |
| 2026-04-14 16:48 | 51.31062 | 6.81721 | 720 ft | 144 kts | 233° |
| 2026-04-14 16:48 | 51.30459 | 6.80453 | 533 ft | 143 kts | 233° |
| 2026-04-14 16:49 | 51.29858 | 6.79181 | 323 ft | 143 kts | 233° |
| 2026-04-14 16:49 | 51.29254 | 6.77916 | 157 ft | 141 kts | 232° |
| 2026-04-14 16:49 | 51.28722 | 6.76796 | 132 ft | 105 kts | 232° |
| 2026-04-14 16:49 | 51.28413 | 6.76148 | 125 ft | 26 kts | 232° |
| 2026-04-14 16:50 | 51.28259 | 6.76047 | 129 ft | 25 kts | 169° |
| 2026-04-14 16:50 | 51.28182 | 6.76118 | 129 ft | 10 kts | 105° |
| 2026-04-14 16:50 | 51.28214 | 6.76199 | 126 ft | 7 kts | 51° |
| 2026-04-14 16:50 | 51.28219 | 6.76209 | 129 ft | 0 kts | 51° |
| 2026-04-14 16:51 | 51.28243 | 6.76260 | 128 ft | 11 kts | 52° |
| 2026-04-14 16:51 | 51.28291 | 6.76361 | 127 ft | 11 kts | 53° |
| 2026-04-14 16:51 | 51.28319 | 6.76468 | 124 ft | 10 kts | 114° |
| 2026-04-14 16:52 | 51.28284 | 6.76506 | 129 ft | 4 kts | 187° |
| 2026-04-14 16:52 | 51.28260 | 6.76479 | 129 ft | 5 kts | 224° |
| 2026-04-14 16:52 | 51.28234 | 6.76445 | 129 ft | 5 kts | 206° |
| 2026-04-14 16:52 | 51.28194 | 6.76433 | 131 ft | 7 kts | 187° |
| 2026-04-14 16:53 | 51.28149 | 6.76424 | 131 ft | 6 kts | 186° |
| 2026-04-14 16:53 | 51.28114 | 6.76418 | 131 ft | 4 kts | 185° |
| 2026-04-14 16:53 | 51.28091 | 6.76424 | 130 ft | 4 kts | 161° |
| 2026-04-14 16:53 | 51.28064 | 6.76449 | 126 ft | 5 kts | 147° |
| 2026-04-14 16:54 | 51.28038 | 6.76476 | 131 ft | 3 kts | 147° |
| 2026-04-14 16:54 | 51.28027 | 6.76491 | 131 ft | 1 kts | 127° |
| 2026-04-14 16:54 | 51.28027 | 6.76500 | 129 ft | 1 kts | 96° |
| 2026-04-14 16:54 | 51.28028 | 6.76505 | 131 ft | 1 kts | 85° |
| 2026-04-14 16:55 | 51.28029 | 6.76524 | 131 ft | 1 kts | 86° |
| 2026-04-14 16:55 | 51.28029 | 6.76528 | 131 ft | 0 kts | 88° |